GMFM

Bassatine Airport

Meknes, Morocco
METAR GMFM 170000Z 28002KT 3000 BR SCT010 BKN020 BKN100 09/09 Q1022 NOSIG
Observed Flight Rules
Dec-17 @ 00:00 UTC (12 minutes ago) Instrument Flight Rules
Wind Visibility Clouds Conditions
280° at 2 knots 2,993 meters
  • Scattered at 1,000' AGL
  • Broken at 2,000' AGL
  • Broken at 10,000' AGL
  • Mist
Temperatures Readings
Current 9°C / 48°F
Dewpoint 9°C / 48°F
Humidity 100%
Altimeter 30.18" Hg
Pressure 1022 hPa
Elevation 549
METAR GMFM 170000Z 28002KT 3000 BR SCT010 BKN020 BKN100 09/09 Q1022 NOSIG
Observed Flight Rules
Dec-17 @ 00:00 UTC
(12 minutes ago)
IFR
Wind Visibility
280° at 2 knots 2,993 meters
Clouds
  • Scattered at 1,000' AGL
  • Broken at 2,000' AGL
  • Broken at 10,000' AGL
Conditions
  • Mist
Temperature Dewpoint
9°C / 48°F 9°C / 48°F
Humidity Altimeter Pressure
100% 30.18" Hg 1022 hPa